Time;durP1;ratioP1;P1;durP2;ratioP2;P2;SDS_P1;SDS_P2;PMS_P1;PMS_P2;Temp;Humidity;BMP_temperature;BMP_pressure;BME280_temperature;BME280_humidity;BME280_pressure;Samples;Min_cycle;Max_cycle;Signal;HPM_P1;HPM_P2
2021/01/24 00:02:09;;;;;;;266.60;86.60;;;3.70;99.90;;;;;;5052196;28;20515;-85
2021/01/24 00:04:35;;;;;;;254.70;81.30;;;3.40;99.90;;;;;;5051620;28;20827;-85
2021/01/24 00:07:02;;;;;;;185.80;65.40;;;4.30;99.90;;;;;;5051952;28;20214;-85
2021/01/24 00:09:28;;;;;;;200.90;70.13;;;3.40;99.90;;;;;;5051801;28;20184;-85
2021/01/24 00:11:54;;;;;;;218.37;70.53;;;3.40;99.90;;;;;;5051901;28;20233;-84
2021/01/24 00:14:20;;;;;;;217.37;73.07;;;4.70;99.90;;;;;;5051602;28;20314;-85
2021/01/24 00:16:46;;;;;;;188.53;63.60;;;3.40;99.90;;;;;;5052956;28;20195;-85
2021/01/24 00:19:12;;;;;;;199.03;64.47;;;3.40;99.90;;;;;;5051908;28;20193;-85
2021/01/24 00:21:38;;;;;;;189.90;62.83;;;4.20;99.90;;;;;;5051717;28;20186;-85
2021/01/24 00:24:05;;;;;;;217.83;67.97;;;4.10;99.90;;;;;;5034839;28;20183;-85
2021/01/24 00:26:31;;;;;;;196.27;66.67;;;3.40;99.90;;;;;;5035056;28;20223;-84
2021/01/24 00:28:56;;;;;;;188.87;65.40;;;5.20;99.90;;;;;;5051805;28;20197;-86
2021/01/24 00:31:22;;;;;;;196.40;64.83;;;3.40;99.90;;;;;;5052743;28;20178;-86
2021/01/24 00:33:48;;;;;;;189.07;62.30;;;3.40;99.90;;;;;;5051519;28;20646;-86
2021/01/24 00:36:15;;;;;;;196.60;63.30;;;4.60;99.90;;;;;;5051485;28;20188;-86
2021/01/24 00:38:42;;;;;;;204.63;65.87;;;3.40;99.90;;;;;;5051544;28;20193;-85
2021/01/24 00:41:08;;;;;;;198.63;65.10;;;3.40;99.90;;;;;;5051814;28;20652;-86
2021/01/24 00:43:34;;;;;;;224.87;73.63;;;3.40;99.90;;;;;;5051599;28;20182;-85
2021/01/24 00:46:00;;;;;;;293.97;88.60;;;3.40;99.90;;;;;;5051193;28;20235;-86
2021/01/24 00:48:26;;;;;;;285.43;89.60;;;4.40;99.90;;;;;;5052254;28;20526;-86
2021/01/24 00:50:52;;;;;;;306.67;90.63;;;3.40;99.90;;;;;;5051290;28;20187;-87
2021/01/24 00:53:18;;;;;;;703.50;187.60;;;3.50;99.90;;;;;;5053250;28;20183;-86
2021/01/24 00:55:45;;;;;;;553.17;148.50;;;3.50;99.90;;;;;;5038193;28;20217;-85
2021/01/24 00:58:11;;;;;;;505.30;135.27;;;3.40;99.90;;;;;;5055159;28;20648;-84
2021/01/24 01:00:37;;;;;;;608.57;154.67;;;3.50;99.90;;;;;;5055553;28;20206;-85
2021/01/24 01:03:03;;;;;;;549.77;148.93;;;3.40;99.90;;;;;;5056001;28;20215;-85
2021/01/24 01:05:36;;;;;;;485.47;135.40;;;3.50;99.90;;;;;;5054538;28;20705;-85
2021/01/24 01:08:02;;;;;;;449.53;123.90;;;3.50;99.90;;;;;;5039302;28;20237;-85
2021/01/24 01:10:28;;;;;;;466.07;126.20;;;3.50;99.90;;;;;;5054596;28;20232;-85
2021/01/24 01:12:54;;;;;;;433.47;118.87;;;3.60;99.90;;;;;;5054873;28;20647;-85
2021/01/24 01:15:19;;;;;;;434.20;123.00;;;3.50;99.90;;;;;;5054768;28;20207;-85
2021/01/24 01:17:45;;;;;;;471.93;123.07;;;3.50;99.90;;;;;;5054195;28;20187;-86
2021/01/24 01:20:11;;;;;;;463.63;125.43;;;4.50;99.90;;;;;;5054305;28;20184;-86
2021/01/24 01:22:36;;;;;;;504.10;137.13;;;3.60;99.90;;;;;;5037718;28;20221;-86
2021/01/24 01:25:03;;;;;;;511.43;135.57;;;3.60;99.90;;;;;;5054184;28;20618;-86
2021/01/24 01:27:30;;;;;;;375.63;103.37;;;3.60;99.90;;;;;;5055214;28;20178;-85
2021/01/24 01:29:56;;;;;;;202.93;61.90;;;3.60;99.90;;;;;;5054512;28;20201;-86
2021/01/24 01:32:21;;;;;;;234.70;67.00;;;4.80;99.90;;;;;;5054418;28;20188;-85
2021/01/24 01:34:47;;;;;;;235.37;66.90;;;4.40;99.90;;;;;;5037453;28;20184;-86
2021/01/24 01:37:13;;;;;;;267.43;77.97;;;3.70;99.90;;;;;;5037002;28;20282;-86
2021/01/24 01:39:38;;;;;;;301.70;86.73;;;3.90;99.90;;;;;;5053717;28;20258;-86
2021/01/24 01:42:16;;;;;;;197.20;60.70;;;5.80;99.90;;;;;;5053581;28;20334;-85
2021/01/24 01:44:46;;;;;;;216.07;63.63;;;3.80;99.90;;;;;;5054362;28;20593;-86
2021/01/24 01:47:19;;;;;;;223.17;67.37;;;3.80;99.90;;;;;;5054811;28;20187;-85
2021/01/24 01:49:45;;;;;;;131.27;44.27;;;3.80;99.90;;;;;;5053213;28;20356;-86
2021/01/24 01:52:11;;;;;;;100.60;35.73;;;3.90;99.90;;;;;;5053583;28;20179;-85
2021/01/24 01:54:37;;;;;;;135.50;42.17;;;3.90;99.90;;;;;;5053307;28;20191;-85
2021/01/24 01:57:02;;;;;;;157.43;49.93;;;3.90;99.90;;;;;;5053452;28;20184;-86
2021/01/24 01:59:28;;;;;;;124.40;40.50;;;3.90;99.90;;;;;;5053611;28;20183;-85
2021/01/24 02:01:56;;;;;;;111.33;38.77;;;4.60;99.90;;;;;;5053166;28;20184;-85
2021/01/24 02:04:46;;;;;;;107.50;38.73;;;3.90;99.90;;;;;;5053094;28;20263;-86
2021/01/24 02:07:16;;;;;;;121.73;40.67;;;3.90;99.90;;;;;;5054330;28;20191;-85
2021/01/24 02:09:43;;;;;;;117.47;39.80;;;4.20;99.90;;;;;;5069568;28;20581;-86
2021/01/24 02:12:36;;;;;;;100.27;34.27;;;4.30;99.90;;;;;;5054899;28;20181;-85
2021/01/24 02:15:06;;;;;;;108.63;41.30;;;4.00;99.90;;;;;;5050300;28;20187;-86
2021/01/24 02:17:36;;;;;;;118.43;43.93;;;4.00;99.90;;;;;;5052822;28;20180;-88
2021/01/24 02:20:07;;;;;;;125.87;44.33;;;4.90;99.90;;;;;;5054246;28;20203;-86
2021/01/24 02:22:37;;;;;;;71.57;31.40;;;4.00;99.90;;;;;;5052984;28;20178;-89
2021/01/24 02:25:03;;;;;;;92.83;37.23;;;4.00;99.90;;;;;;5054045;28;20203;-87
2021/01/24 02:28:11;;;;;;;66.40;29.90;;;4.10;99.90;;;;;;5052680;28;20589;-86
2021/01/24 02:30:38;;;;;;;72.10;30.90;;;4.10;99.90;;;;;;5052358;28;20172;-88
2021/01/24 02:33:08;;;;;;;82.33;31.10;;;4.10;99.90;;;;;;5053207;28;20190;-86
2021/01/24 02:35:38;;;;;;;84.40;33.77;;;4.10;99.90;;;;;;5052714;28;20172;-86
2021/01/24 02:38:06;;;;;;;86.00;36.23;;;4.10;99.90;;;;;;5052937;28;20178;-86
2021/01/24 02:40:36;;;;;;;127.77;44.23;;;4.10;99.90;;;;;;5052841;28;20172;-86
2021/01/24 02:43:09;;;;;;;92.63;38.13;;;4.10;99.90;;;;;;5052403;28;20183;-86
2021/01/24 02:45:39;;;;;;;94.93;35.47;;;4.30;99.90;;;;;;5036030;28;20243;-86
2021/01/24 02:48:05;;;;;;;120.73;40.87;;;4.10;99.90;;;;;;5052732;28;20241;-86
2021/01/24 02:50:32;;;;;;;105.47;38.13;;;3.60;99.90;;;;;;5052327;28;20188;-86
2021/01/24 02:52:59;;;;;;;71.80;28.63;;;5.80;99.90;;;;;;5053540;28;20182;-86
2021/01/24 02:55:26;;;;;;;55.10;24.70;;;5.00;99.90;;;;;;5054137;28;20196;-85
2021/01/24 02:57:52;;;;;;;55.70;24.20;;;5.00;99.90;;;;;;5053402;28;20187;-87
2021/01/24 03:00:19;;;;;;;61.63;25.63;;;4.50;99.90;;;;;;5052545;28;20177;-86
2021/01/24 03:02:45;;;;;;;51.03;22.17;;;4.20;99.90;;;;;;5051692;28;20269;-86
2021/01/24 03:05:12;;;;;;;43.67;20.23;;;4.10;99.90;;;;;;5053484;28;20214;-85
2021/01/24 03:07:38;;;;;;;47.17;22.10;;;4.10;99.90;;;;;;5052253;28;20198;-86
2021/01/24 03:10:05;;;;;;;46.87;19.47;;;5.50;99.90;;;;;;5035605;28;20176;-85
2021/01/24 03:12:36;;;;;;;42.73;19.67;;;4.10;99.90;;;;;;5051956;28;20203;-85
2021/01/24 03:15:04;;;;;;;45.33;19.23;;;4.10;99.90;;;;;;5053355;28;20244;-85
2021/01/24 03:17:33;;;;;;;50.00;21.53;;;4.10;99.90;;;;;;5052726;28;20183;-85
2021/01/24 03:20:00;;;;;;;47.93;20.93;;;4.10;99.90;;;;;;5051793;28;20252;-85
2021/01/24 03:22:26;;;;;;;43.23;20.83;;;4.10;99.90;;;;;;5052264;28;20191;-85
2021/01/24 03:24:53;;;;;;;45.97;21.57;;;4.10;99.90;;;;;;5051262;28;20186;-85
2021/01/24 03:27:19;;;;;;;43.80;19.00;;;4.10;99.90;;;;;;5053229;28;20542;-85
2021/01/24 03:29:45;;;;;;;43.70;19.87;;;4.10;99.90;;;;;;5051206;28;20230;-86
2021/01/24 03:32:11;;;;;;;44.13;19.40;;;4.10;99.90;;;;;;5051756;28;20180;-85
2021/01/24 03:34:37;;;;;;;48.30;21.13;;;4.90;99.90;;;;;;5051338;28;20278;-85
2021/01/24 03:37:03;;;;;;;46.07;21.93;;;4.10;99.90;;;;;;5051200;28;20183;-85
2021/01/24 03:39:28;;;;;;;57.57;23.80;;;5.20;99.90;;;;;;5051806;28;20590;-86
2021/01/24 03:41:54;;;;;;;55.07;25.00;;;5.40;99.90;;;;;;5051247;28;20183;-87
2021/01/24 03:44:20;;;;;;;68.60;28.37;;;4.10;99.90;;;;;;5034429;28;20182;-87
2021/01/24 03:46:45;;;;;;;63.80;27.43;;;4.00;99.90;;;;;;5034803;28;20233;-87
2021/01/24 03:49:11;;;;;;;62.40;26.13;;;4.10;99.90;;;;;;5051537;28;20221;-86
2021/01/24 03:51:37;;;;;;;66.63;27.37;;;4.10;99.90;;;;;;5051409;28;20194;-86
2021/01/24 03:54:02;;;;;;;95.03;35.57;;;4.40;99.90;;;;;;5051442;28;20188;-85
2021/01/24 03:56:28;;;;;;;86.27;30.67;;;4.10;99.90;;;;;;5051793;28;20194;-86
2021/01/24 03:58:54;;;;;;;87.00;36.80;;;4.10;99.90;;;;;;5051221;28;20632;-85
2021/01/24 04:01:19;;;;;;;60.90;28.33;;;4.80;99.90;;;;;;5034494;28;20184;-84
2021/01/24 04:03:45;;;;;;;45.73;22.60;;;4.40;99.90;;;;;;5051187;28;20193;-85
2021/01/24 04:06:11;;;;;;;44.10;21.97;;;4.00;99.90;;;;;;5051288;28;20222;-87
2021/01/24 04:08:37;;;;;;;32.97;16.73;;;5.00;99.90;;;;;;5034667;28;20207;-86
2021/01/24 04:11:03;;;;;;;43.93;18.30;;;4.00;99.90;;;;;;5052181;28;20558;-85
2021/01/24 04:13:29;;;;;;;39.80;19.17;;;5.20;99.90;;;;;;5052336;28;20179;-86
2021/01/24 04:15:54;;;;;;;47.70;20.60;;;5.10;99.90;;;;;;5051053;28;20648;-86
2021/01/24 04:18:20;;;;;;;46.87;19.43;;;4.30;99.90;;;;;;5051257;28;20210;-86
2021/01/24 04:20:46;;;;;;;42.00;20.10;;;4.00;99.90;;;;;;5051100;28;20187;-86
2021/01/24 04:23:12;;;;;;;90.13;37.00;;;4.00;99.90;;;;;;5050904;28;20210;-86
2021/01/24 04:25:38;;;;;;;72.67;31.97;;;4.20;99.90;;;;;;5052381;28;20216;-87
2021/01/24 04:28:03;;;;;;;57.57;23.43;;;4.00;99.90;;;;;;5052454;28;20181;-86
2021/01/24 04:30:29;;;;;;;37.47;19.80;;;4.00;99.90;;;;;;5055234;28;20285;-87
2021/01/24 04:32:55;;;;;;;39.10;20.20;;;3.90;99.90;;;;;;5054749;28;20540;-86
2021/01/24 04:35:22;;;;;;;38.57;19.20;;;4.00;99.90;;;;;;5055341;28;20196;-87
2021/01/24 04:37:48;;;;;;;38.00;19.47;;;4.00;99.90;;;;;;5056478;28;20624;-86
2021/01/24 04:40:16;;;;;;;32.70;16.43;;;4.00;99.90;;;;;;5054971;28;20211;-87
2021/01/24 04:42:43;;;;;;;31.57;17.03;;;4.00;99.90;;;;;;5054960;28;20190;-87
2021/01/24 04:45:09;;;;;;;30.83;16.83;;;5.20;99.90;;;;;;5053808;28;20269;-87
2021/01/24 04:47:39;;;;;;;27.97;15.03;;;4.00;99.90;;;;;;5054773;28;20195;-87
2021/01/24 04:50:05;;;;;;;27.13;14.87;;;4.00;99.90;;;;;;5055492;28;20180;-86
2021/01/24 04:52:31;;;;;;;29.53;16.20;;;4.00;99.90;;;;;;5054879;28;20273;-87
2021/01/24 04:54:58;;;;;;;25.23;15.40;;;4.00;99.90;;;;;;5054159;28;20217;-87
2021/01/24 04:57:24;;;;;;;30.77;15.67;;;4.10;99.90;;;;;;5054741;28;20179;-87
2021/01/24 04:59:49;;;;;;;32.53;15.50;;;3.90;99.90;;;;;;5054555;28;20179;-87
2021/01/24 05:02:16;;;;;;;49.67;24.67;;;4.00;99.90;;;;;;5054426;28;20553;-87
2021/01/24 05:04:42;;;;;;;156.27;58.10;;;4.70;99.90;;;;;;5038101;28;20176;-87
2021/01/24 05:07:08;;;;;;;238.17;81.57;;;3.90;99.90;;;;;;5054180;28;20228;-88
2021/01/24 05:09:34;;;;;;;287.77;100.93;;;3.90;99.90;;;;;;5037896;28;20185;-88
2021/01/24 05:12:01;;;;;;;181.07;73.43;;;5.50;99.90;;;;;;5037291;28;20185;-87
2021/01/24 05:14:27;;;;;;;172.43;75.83;;;5.20;99.90;;;;;;5054386;28;20202;-88
2021/01/24 05:16:55;;;;;;;202.47;89.27;;;3.90;99.90;;;;;;5054835;28;20711;-88
2021/01/24 05:19:21;;;;;;;188.67;79.07;;;;;;;;;;5054130;28;20176;-88
2021/01/24 05:21:48;;;;;;;231.30;96.27;;;4.80;99.90;;;;;;5070824;28;20189;-88
2021/01/24 05:24:16;;;;;;;283.60;118.40;;;3.90;99.90;;;;;;5053847;28;20172;-87
2021/01/24 05:26:47;;;;;;;167.33;73.27;;;3.90;99.90;;;;;;5054067;28;20214;-87
2021/01/24 05:29:42;;;;;;;112.40;52.00;;;3.90;99.90;;;;;;5053991;28;20200;-86
2021/01/24 05:32:10;;;;;;;100.43;48.07;;;3.90;99.90;;;;;;5070120;28;20651;-86
2021/01/24 05:34:36;;;;;;;150.83;55.33;;;5.40;99.90;;;;;;5070641;28;20196;-86
2021/01/24 05:37:02;;;;;;;198.70;67.67;;;3.90;99.90;;;;;;5055095;28;20178;-87
2021/01/24 05:39:30;;;;;;;212.93;70.13;;;4.00;99.90;;;;;;5053581;28;20190;-86
2021/01/24 05:41:57;;;;;;;156.60;55.43;;;4.00;99.90;;;;;;5053830;28;20209;-86
2021/01/24 05:44:25;;;;;;;154.20;53.60;;;4.00;99.90;;;;;;5053546;28;20263;-86
2021/01/24 05:47:01;;;;;;;169.00;58.00;;;1.90;99.90;;;;;;5052034;28;20217;-86
2021/01/24 05:49:32;;;;;;;134.43;48.67;;;4.10;99.90;;;;;;5051421;28;20245;-87
2021/01/24 05:52:08;;;;;;;127.90;45.27;;;4.00;99.90;;;;;;5070282;28;20599;-89
2021/01/24 05:54:41;;;;;;;93.00;37.80;;;3.90;99.90;;;;;;5051854;28;20237;-89
2021/01/24 05:57:08;;;;;;;77.83;33.03;;;4.00;99.90;;;;;;5037604;28;20184;-88
2021/01/24 05:59:50;;;;;;;68.90;30.07;;;3.90;99.90;;;;;;5053748;28;20186;-89
2021/01/24 06:02:18;;;;;;;94.67;37.07;;;3.90;99.90;;;;;;5072560;28;20195;-88
2021/01/24 06:04:45;;;;;;;98.10;37.77;;;4.40;99.90;;;;;;5071954;28;20176;-89
2021/01/24 06:07:12;;;;;;;65.93;29.40;;;4.10;99.90;;;;;;5063252;28;20534;-90
2021/01/24 06:09:38;;;;;;;71.43;30.47;;;;;;;;;;5058743;28;20190;-88
2021/01/24 06:12:07;;;;;;;66.33;31.27;;;4.00;99.90;;;;;;5036851;28;20218;-87
2021/01/24 06:14:42;;;;;;;61.07;26.73;;;3.90;99.90;;;;;;5053359;28;20192;-89
2021/01/24 06:17:30;;;;;;;61.47;28.43;;;4.20;99.90;;;;;;5053367;28;20270;-89
2021/01/24 06:19:58;;;;;;;43.33;21.53;;;3.90;99.90;;;;;;5052377;28;20315;-91
2021/01/24 06:22:30;;;;;;;40.83;20.17;;;4.00;99.90;;;;;;5055922;28;20191;-88
2021/01/24 06:24:59;;;;;;;40.10;19.40;;;4.30;99.90;;;;;;5065271;28;20194;-88
2021/01/24 06:27:29;;;;;;;41.03;21.07;;;4.20;99.90;;;;;;5053403;28;20187;-87
2021/01/24 06:29:57;;;;;;;36.27;21.07;;;4.00;99.90;;;;;;5052859;28;20283;-88
2021/01/24 06:32:31;;;;;;;40.77;23.00;;;4.20;99.90;;;;;;5053656;28;20189;-88
2021/01/24 06:38:35;;;;;;;44.17;22.80;;;3.90;99.90;;;;;;5033064;28;20215;-87
2021/01/24 06:41:09;;;;;;;45.33;24.20;;;4.20;99.90;;;;;;5033862;28;20629;-88
2021/01/24 06:43:40;;;;;;;50.37;24.77;;;4.50;99.90;;;;;;5056595;28;20190;-87
2021/01/24 06:46:07;;;;;;;55.23;26.93;;;4.80;99.90;;;;;;5052759;28;20599;-89
2021/01/24 06:48:48;;;;;;;58.20;29.50;;;4.20;99.90;;;;;;5052350;28;20174;-88
2021/01/24 06:51:35;;;;;;;62.73;30.03;;;4.20;99.90;;;;;;5051880;28;20174;-88
2021/01/24 06:54:02;;;;;;;68.97;32.73;;;4.00;99.90;;;;;;5052284;28;20233;-89
2021/01/24 06:56:41;;;;;;;72.03;33.70;;;4.00;99.90;;;;;;5052036;28;20276;-88
2021/01/24 06:59:09;;;;;;;67.63;32.60;;;4.00;99.90;;;;;;5052104;28;20182;-87
2021/01/24 07:01:41;;;;;;;80.63;36.90;;;4.00;99.90;;;;;;5052513;28;20201;-88
2021/01/24 07:04:30;;;;;;;73.97;36.43;;;4.50;99.90;;;;;;5070673;28;20178;-86
2021/01/24 07:06:56;;;;;;;71.20;36.77;;;4.00;99.90;;;;;;5052015;28;20220;-87
2021/01/24 07:09:27;;;;;;;80.27;39.13;;;4.10;99.90;;;;;;5051925;28;20190;-86
2021/01/24 07:11:59;;;;;;;85.00;42.17;;;4.10;99.90;;;;;;5063454;28;20237;-87
2021/01/24 07:14:37;;;;;;;89.70;42.47;;;4.10;99.90;;;;;;5053029;28;20180;-87
2021/01/24 07:17:19;;;;;;;81.83;41.80;;;4.10;99.90;;;;;;5052286;28;20575;-89
2021/01/24 07:19:50;;;;;;;95.33;48.47;;;4.20;99.90;;;;;;5079720;28;20274;-88
2021/01/24 07:22:18;;;;;;;110.23;50.20;;;4.10;99.90;;;;;;5052103;28;20211;-87
2021/01/24 07:24:45;;;;;;;103.13;50.37;;;4.20;99.90;;;;;;5052326;28;20196;-89
2021/01/24 07:27:13;;;;;;;98.63;50.67;;;4.90;99.90;;;;;;5068554;28;20321;-88
2021/01/24 07:29:39;;;;;;;103.87;49.90;;;4.20;99.90;;;;;;5051430;28;20627;-89
2021/01/24 07:32:15;;;;;;;99.90;50.80;;;4.20;99.90;;;;;;5051751;28;20182;-88
2021/01/24 07:34:43;;;;;;;96.07;49.30;;;4.20;99.90;;;;;;5052661;28;20640;-89
2021/01/24 07:37:09;;;;;;;109.63;54.33;;;4.40;99.90;;;;;;5035515;28;20201;-88
2021/01/24 07:39:36;;;;;;;122.97;60.70;;;4.30;99.90;;;;;;5054367;28;20188;-89
2021/01/24 07:42:07;;;;;;;91.37;45.97;;;4.30;99.90;;;;;;5068955;28;20175;-88
2021/01/24 07:44:35;;;;;;;94.27;48.13;;;4.20;99.90;;;;;;5054974;28;20198;-88
2021/01/24 07:47:08;;;;;;;110.53;52.33;;;4.40;99.90;;;;;;5057492;28;20215;-88
2021/01/24 07:49:35;;;;;;;123.80;57.33;;;4.30;99.90;;;;;;5063521;28;20192;-87
2021/01/24 07:52:05;;;;;;;123.67;61.43;;;4.50;99.90;;;;;;5060017;28;20657;-87
2021/01/24 07:54:35;;;;;;;127.60;59.27;;;4.30;99.90;;;;;;5050220;28;20187;-88
2021/01/24 07:57:06;;;;;;;108.47;54.00;;;4.50;99.90;;;;;;5064024;28;20674;-88
2021/01/24 08:00:07;;;;;;;120.93;55.83;;;4.30;99.90;;;;;;5064008;28;20180;-85
2021/01/24 08:06:17;;;;;;;124.57;60.27;;;4.30;99.90;;;;;;5084100;28;20233;-85
2021/01/24 08:08:45;;;;;;;126.30;61.70;;;2.30;99.90;;;;;;5100069;28;20197;-87
2021/01/24 08:11:12;;;;;;;132.10;64.13;;;4.40;99.90;;;;;;5061822;28;20190;-87
2021/01/24 08:13:39;;;;;;;193.23;90.30;;;4.40;99.90;;;;;;5079785;28;20834;-86
2021/01/24 08:16:44;;;;;;;184.17;88.03;;;4.70;99.90;;;;;;5068071;28;20254;-87
2021/01/24 08:19:22;;;;;;;168.87;79.53;;;4.50;99.90;;;;;;5094352;28;20194;-85
2021/01/24 08:21:52;;;;;;;141.27;66.90;;;3.60;99.90;;;;;;5101889;28;20192;-86
2021/01/24 08:24:18;;;;;;;129.13;64.03;;;4.50;99.90;;;;;;5067548;28;20277;-86
2021/01/24 08:26:50;;;;;;;133.67;66.77;;;4.50;99.90;;;;;;5086759;28;20304;-86
2021/01/24 08:29:23;;;;;;;120.43;59.40;;;4.60;99.90;;;;;;5080692;28;20193;-84
2021/01/24 08:31:48;;;;;;;100.23;47.50;;;4.60;99.90;;;;;;5076315;28;20203;-84
2021/01/24 08:34:16;;;;;;;92.23;48.87;;;4.60;99.90;;;;;;5064955;28;20185;-85
2021/01/24 08:36:44;;;;;;;102.80;50.30;;;4.60;99.90;;;;;;5050074;28;20207;-87
2021/01/24 08:39:09;;;;;;;110.13;53.00;;;4.60;99.90;;;;;;5059843;28;20182;-86
2021/01/24 08:41:40;;;;;;;105.70;52.77;;;4.60;99.90;;;;;;5079214;28;20200;-87
2021/01/24 08:44:12;;;;;;;128.93;60.27;;;4.80;99.90;;;;;;5042773;28;20190;-86
2021/01/24 08:46:43;;;;;;;144.40;67.43;;;4.70;99.90;;;;;;5058137;28;20239;-86
2021/01/24 08:49:19;;;;;;;143.17;65.90;;;4.70;99.90;;;;;;5056137;28;20187;-85
2021/01/24 08:51:49;;;;;;;168.17;75.33;;;4.70;99.90;;;;;;5060120;28;20198;-85
2021/01/24 08:54:40;;;;;;;147.73;72.73;;;4.70;99.90;;;;;;5058179;28;20282;-84
2021/01/24 08:57:20;;;;;;;146.53;70.73;;;4.70;99.90;;;;;;5066314;28;20227;-86
2021/01/24 08:59:48;;;;;;;156.40;73.73;;;4.80;99.90;;;;;;5064516;28;20194;-86
2021/01/24 09:02:14;;;;;;;173.07;79.67;;;4.80;99.90;;;;;;5051653;28;20220;-85
2021/01/24 09:04:46;;;;;;;185.70;83.67;;;4.90;99.90;;;;;;5067972;28;20234;-86
2021/01/24 09:07:17;;;;;;;184.10;84.20;;;4.90;99.90;;;;;;5049740;28;20215;-89
2021/01/24 09:09:47;;;;;;;173.30;82.07;;;4.90;99.90;;;;;;5036428;28;20180;-85
2021/01/24 09:12:15;;;;;;;149.93;75.37;;;4.90;99.90;;;;;;5056324;28;20184;-87
2021/01/24 09:14:42;;;;;;;150.27;70.80;;;;;;;;;;5064946;28;20206;-87
2021/01/24 09:17:13;;;;;;;117.53;61.60;;;5.00;99.90;;;;;;5067735;28;20597;-87
2021/01/24 09:19:44;;;;;;;114.83;57.77;;;5.10;99.90;;;;;;5059267;28;20235;-85
2021/01/24 09:22:12;;;;;;;104.27;51.13;;;5.20;99.90;;;;;;5058394;28;20206;-86
2021/01/24 09:24:39;;;;;;;87.67;44.30;;;5.20;99.90;;;;;;5064616;28;20193;-87
2021/01/24 09:27:06;;;;;;;95.10;45.40;;;6.00;99.90;;;;;;5067679;28;20230;-86
2021/01/24 09:29:34;;;;;;;78.53;40.77;;;5.30;99.90;;;;;;5069025;28;20222;-88
2021/01/24 09:32:00;;;;;;;81.57;40.90;;;;;;;;;;5071615;28;20636;-87
2021/01/24 09:34:26;;;;;;;94.00;43.97;;;;;;;;;;5061461;28;20627;-85
2021/01/24 09:36:52;;;;;;;79.40;40.33;;;;;;;;;;5074498;28;20198;-88
2021/01/24 09:39:18;;;;;;;83.27;44.13;;;;;;;;;;5070406;28;20187;-86
2021/01/24 09:41:51;;;;;;;108.07;46.47;;;;;;;;;;5081497;28;20183;-87
2021/01/24 09:44:18;;;;;;;115.70;48.67;;;;;;;;;;5071387;28;20281;-88
2021/01/24 09:46:44;;;;;;;88.87;40.13;;;;;;;;;;5065170;28;20239;-89
2021/01/24 09:49:10;;;;;;;91.07;40.47;;;;;;;;;;5070318;28;20184;-88
2021/01/24 09:51:36;;;;;;;91.00;40.23;;;;;;;;;;5069892;28;20222;-88
2021/01/24 09:54:03;;;;;;;81.17;37.23;;;5.60;99.90;;;;;;5069753;28;20302;-88
2021/01/24 09:56:29;;;;;;;86.67;38.90;;;;;;;;;;5042954;28;20261;-87
2021/01/24 09:58:56;;;;;;;78.47;36.70;;;;;;;;;;5073207;28;20270;-87
2021/01/24 10:01:22;;;;;;;98.73;41.80;;;;;;;;;;5061094;28;20180;-87
2021/01/24 10:03:48;;;;;;;167.70;61.03;;;;;;;;;;5071655;28;20190;-85
2021/01/24 10:06:15;;;;;;;179.97;68.37;;;;;;;;;;5061688;28;20625;-86
2021/01/24 10:08:41;;;;;;;258.50;91.37;;;;;;;;;;5064326;28;20649;-89
2021/01/24 10:11:08;;;;;;;243.07;84.73;;;;;;;;;;5056196;28;20195;-88
2021/01/24 10:13:34;;;;;;;214.10;73.40;;;;;;;;;;5048624;28;20191;-86
2021/01/24 10:16:00;;;;;;;147.00;62.40;;;;;;;;;;5063739;28;20191;-86
2021/01/24 10:18:26;;;;;;;115.43;50.37;;;;;;;;;;5047808;28;20453;-87
2021/01/24 10:20:53;;;;;;;128.83;56.80;;;;;;;;;;5053683;28;20552;-88
2021/01/24 10:23:23;;;;;;;101.57;46.47;;;;;;;;;;5053659;28;20183;-88
2021/01/24 10:25:53;;;;;;;110.67;48.13;;;5.70;99.90;;;;;;5051522;28;20204;-87
2021/01/24 10:28:20;;;;;;;225.77;91.57;;;5.80;99.90;;;;;;5051666;28;20183;-89
2021/01/24 10:30:47;;;;;;;348.77;112.20;;;;;;;;;;5052718;28;20652;-87
2021/01/24 10:33:13;;;;;;;187.17;74.23;;;;;;;;;;5062277;28;20184;-88
2021/01/24 10:35:39;;;;;;;169.10;62.33;;;;;;;;;;5063048;28;20188;-89
2021/01/24 10:38:06;;;;;;;163.43;61.80;;;;;;;;;;5059331;28;20237;-87
2021/01/24 10:40:32;;;;;;;130.13;56.50;;;;;;;;;;5053828;28;20242;-87
2021/01/24 10:42:58;;;;;;;105.27;49.63;;;;;;;;;;5054802;28;20214;-91
2021/01/24 10:45:24;;;;;;;92.20;44.20;;;;;;;;;;5055584;28;20238;-88
2021/01/24 10:47:51;;;;;;;75.87;38.00;;;6.00;99.90;;;;;;5056863;28;20187;-89
2021/01/24 10:50:20;;;;;;;77.73;40.27;;;;;;;;;;5068681;28;20681;-88
2021/01/24 10:52:46;;;;;;;80.63;37.33;;;;;;;;;;5066673;28;20256;-87
2021/01/24 10:55:12;;;;;;;69.93;33.70;;;;;;;;;;5070446;28;20308;-87
2021/01/24 10:57:38;;;;;;;58.60;29.23;;;;;;;;;;5056576;28;20554;-87
2021/01/24 11:00:06;;;;;;;62.90;28.80;;;6.00;99.90;;;;;;5064256;28;20696;-87
2021/01/24 11:02:32;;;;;;;62.40;30.00;;;;;;;;;;5067013;28;20196;-89
2021/01/24 11:04:58;;;;;;;58.30;29.20;;;;;;;;;;5077434;28;20747;-83
2021/01/24 11:07:24;;;;;;;51.07;27.53;;;5.50;99.90;;;;;;5084084;28;20263;-87
2021/01/24 11:09:50;;;;;;;61.37;29.77;;;;;;;;;;5076880;28;20194;-87
2021/01/24 11:12:16;;;;;;;61.43;32.07;;;;;;;;;;5051061;28;20187;-87
2021/01/24 11:14:42;;;;;;;66.03;33.47;;;6.00;99.90;;;;;;5062560;28;20183;-89
2021/01/24 11:17:08;;;;;;;59.73;30.33;;;;;;;;;;5061129;28;20325;-88
2021/01/24 11:19:34;;;;;;;59.13;32.53;;;;;;;;;;5077422;28;20226;-88
2021/01/24 11:22:01;;;;;;;65.60;34.67;;;;;;;;;;5055230;28;20658;-87
2021/01/24 11:24:27;;;;;;;67.53;35.70;;;;;;;;;;5052240;28;20198;-88
2021/01/24 11:26:53;;;;;;;71.07;37.90;;;;;;;;;;5037089;28;20298;-86
2021/01/24 11:29:19;;;;;;;70.33;37.53;;;;;;;;;;5031522;28;20188;-87
2021/01/24 11:31:45;;;;;;;60.17;32.33;;;;;;;;;;5069570;28;20187;-88
2021/01/24 11:34:11;;;;;;;61.00;33.00;;;;;;;;;;5063137;28;20563;-87
2021/01/24 11:36:37;;;;;;;61.20;31.23;;;;;;;;;;5042971;28;20196;-88
2021/01/24 11:39:05;;;;;;;73.13;35.83;;;5.90;99.90;;;;;;5066070;28;20243;-87
2021/01/24 11:41:31;;;;;;;69.07;32.97;;;;;;;;;;5073568;28;20203;-88
2021/01/24 11:43:57;;;;;;;56.77;32.53;;;;;;;;;;5044179;28;20216;-88
2021/01/24 11:46:24;;;;;;;66.53;33.60;;;6.20;99.90;;;;;;5066199;28;20234;-88
2021/01/24 11:48:50;;;;;;;63.80;33.40;;;;;;;;;;5065082;28;20210;-87
2021/01/24 11:51:16;;;;;;;64.20;32.47;;;6.40;99.90;;;;;;5063019;28;20193;-87
2021/01/24 11:53:42;;;;;;;68.07;35.20;;;6.40;99.90;;;;;;5060006;28;20210;-87
2021/01/24 11:56:08;;;;;;;70.50;34.27;;;;;;;;;;5059265;28;20194;-89
2021/01/24 11:58:34;;;;;;;68.10;33.53;;;;;;;;;;5060646;28;20655;-89
2021/01/24 12:01:03;;;;;;;70.10;36.23;;;;;;;;;;5060669;28;20245;-88
2021/01/24 12:03:29;;;;;;;67.23;32.47;;;;;;;;;;5059218;28;20670;-88
2021/01/24 12:05:55;;;;;;;63.10;32.40;;;;;;;;;;5061490;28;20265;-89
2021/01/24 12:08:21;;;;;;;53.33;27.97;;;;;;;;;;5068170;28;20639;-89
2021/01/24 12:10:47;;;;;;;62.53;30.77;;;;;;;;;;5065612;28;20268;-89
2021/01/24 12:13:13;;;;;;;57.67;27.23;;;;;;;;;;5049188;28;20191;-86
2021/01/24 12:15:39;;;;;;;57.20;28.87;;;;;;;;;;5062645;28;20678;-88
2021/01/24 12:18:05;;;;;;;46.80;24.13;;;;;;;;;;5058689;28;20191;-87
2021/01/24 12:20:32;;;;;;;56.47;24.90;;;;;;;;;;5087149;28;20191;-90
2021/01/24 12:22:58;;;;;;;61.70;29.20;;;;;;;;;;5074868;28;20194;-84
2021/01/24 12:25:24;;;;;;;61.83;27.70;;;;;;;;;;5062683;28;20246;-87
2021/01/24 12:27:50;;;;;;;55.50;26.53;;;;;;;;;;5073324;28;20196;-85
2021/01/24 12:30:18;;;;;;;55.07;28.27;;;4.80;99.90;;;;;;5083754;28;20270;-90
2021/01/24 12:32:47;;;;;;;56.10;27.80;;;;;;;;;;5051348;28;20199;-91
2021/01/24 12:35:13;;;;;;;64.33;31.57;;;;;;;;;;5062769;28;20245;-86
2021/01/24 12:37:39;;;;;;;68.70;32.67;;;;;;;;;;5056921;28;20192;-87
2021/01/24 12:40:06;;;;;;;61.67;31.87;;;6.50;99.90;;;;;;5060296;28;20180;-88
2021/01/24 12:42:33;;;;;;;67.07;30.77;;;;;;;;;;5073592;28;20250;-92
2021/01/24 12:44:59;;;;;;;66.43;36.17;;;;;;;;;;5056688;28;20198;-90
2021/01/24 12:47:27;;;;;;;84.07;46.20;;;6.60;99.90;;;;;;5052224;28;20299;-90
2021/01/24 12:49:53;;;;;;;98.53;49.90;;;;;;;;;;5060118;28;20353;-86
2021/01/24 12:52:19;;;;;;;98.43;47.43;;;;;;;;;;5075854;28;20187;-89
2021/01/24 12:54:46;;;;;;;133.33;53.13;;;6.80;99.90;;;;;;5075198;28;20311;-90
2021/01/24 12:57:13;;;;;;;157.50;58.10;;;6.80;99.90;;;;;;5059011;28;20187;-88
2021/01/24 12:59:44;;;;;;;152.23;56.90;;;6.80;99.90;;;;;;5071361;28;20222;-88
2021/01/24 13:02:12;;;;;;;142.90;53.20;;;;;;;;;;5064447;28;20240;-89
2021/01/24 13:04:38;;;;;;;136.17;51.67;;;;;;;;;;5062499;28;20258;-90
2021/01/24 13:07:07;;;;;;;185.30;61.83;;;6.80;99.90;;;;;;5054872;28;20322;-92